Time;durP1;ratioP1;P1;durP2;ratioP2;P2;SDS_P1;SDS_P2;PMS_P1;PMS_P2;Temp;Humidity;BMP_temperature;BMP_pressure;BME280_temperature;BME280_humidity;BME280_pressure;Samples;Min_cycle;Max_cycle;Signal;HPM_P1;HPM_P2
2022/09/11 00:01:04;;;;;;;11.75;6.85;;;;;;;;;;5034405;28;20371;-63
2022/09/11 00:03:30;;;;;;;13.05;7.65;;;;;;;;;;5034426;28;20025;-64
2022/09/11 00:06:03;;;;;;;13.82;8.65;;;;;;;;;;5034455;28;20116;-67
2022/09/11 00:08:30;;;;;;;16.35;10.23;;;;;;;;;;5034391;28;20029;-63
2022/09/11 00:11:06;;;;;;;15.55;9.63;;;;;;;;;;5034211;28;20109;-63
2022/09/11 00:13:32;;;;;;;16.02;9.65;;;;;;;;;;5034076;28;20033;-63
2022/09/11 00:15:57;;;;;;;15.18;10.02;;;;;;;;;;5034184;28;20091;-63
2022/09/11 00:18:23;;;;;;;14.90;9.38;;;;;;;;;;5034092;28;20026;-65
2022/09/11 00:20:53;;;;;;;19.63;11.10;;;;;;;;;;5033931;28;20022;-62
2022/09/11 00:23:22;;;;;;;23.60;12.88;;;;;;;;;;5034074;28;20029;-63
2022/09/11 00:25:48;;;;;;;32.60;18.10;;;;;;;;;;5033861;28;20114;-63
2022/09/11 00:28:22;;;;;;;38.75;20.27;;;;;;;;;;5033437;28;20160;-65
2022/09/11 00:31:00;;;;;;;36.33;19.15;;;;;;;;;;5033986;28;20044;-63
2022/09/11 00:33:27;;;;;;;29.25;15.30;;;;;;;;;;5033788;28;20053;-63
2022/09/11 00:35:55;;;;;;;29.98;14.05;;;;;;;;;;5032589;28;20060;-64
2022/09/11 00:38:21;;;;;;;23.58;12.48;;;;;;;;;;5033760;28;20037;-63
2022/09/11 00:40:47;;;;;;;17.75;10.27;;;;;;;;;;5032962;28;20025;-63
2022/09/11 00:43:16;;;;;;;14.55;9.27;;;;;;;;;;5033525;28;20029;-63
2022/09/11 00:45:51;;;;;;;15.82;10.25;;;;;;;;;;5033620;28;20025;-63
2022/09/11 00:48:21;;;;;;;15.00;9.10;;;;;;;;;;5033583;28;20061;-63
2022/09/11 00:50:49;;;;;;;14.57;8.85;;;;;;;;;;5033320;28;20051;-63
2022/09/11 00:53:18;;;;;;;15.43;9.30;;;;;;;;;;5033581;28;20503;-63
2022/09/11 00:55:49;;;;;;;29.70;9.43;;;;;;;;;;5033601;28;20060;-63
2022/09/11 00:58:19;;;;;;;43.45;9.15;;;;;;;;;;5032881;28;20125;-63
2022/09/11 01:00:45;;;;;;;33.45;9.55;;;;;;;;;;5033356;28;20040;-63
2022/09/11 01:03:10;;;;;;;69.43;10.57;;;;;;;;;;5033318;28;20108;-63
2022/09/11 01:05:40;;;;;;;81.55;11.02;;;;;;;;;;5033367;28;20521;-68
2022/09/11 01:08:06;;;;;;;71.75;11.70;;;;;;;;;;5033163;28;20543;-65
2022/09/11 01:10:39;;;;;;;43.60;11.50;;;;;;;;;;5032944;28;20030;-63
2022/09/11 01:13:26;;;;;;;45.03;12.85;;;;;;;;;;5033206;28;20544;-63
2022/09/11 01:16:37;;;;;;;25.85;11.88;;;;;;;;;;5033299;28;20044;-63
2022/09/11 01:19:07;;;;;;;;;;;;;;;;;;5033595;28;20030;-63
2022/09/11 01:21:57;;;;;;;60.83;11.75;;;;;;;;;;5032950;28;20023;-64
2022/09/11 01:24:41;;;;;;;;;;;;;;;;;;5033467;28;20025;-63
2022/09/11 01:27:40;;;;;;;39.60;11.82;;;;;;;;;;5032593;28;19924;-64
2022/09/11 01:30:07;;;;;;;67.78;12.48;;;;;;;;;;5032911;28;20403;-63
2022/09/11 01:32:47;;;;;;;55.38;12.15;;;;;;;;;;5032764;28;20029;-63
2022/09/11 01:35:30;;;;;;;56.15;13.35;;;;;;;;;;5032885;28;20462;-63
2022/09/11 01:38:05;;;;;;;55.10;12.57;;;;;;;;;;5032862;28;20029;-63
2022/09/11 01:40:53;;;;;;;57.33;11.77;;;;;;;;;;5032710;28;20034;-63
2022/09/11 01:43:25;;;;;;;38.95;11.38;;;;;;;;;;5032284;28;20095;-63
2022/09/11 01:45:53;;;;;;;38.42;11.20;;;;;;;;;;5032728;28;20034;-63
2022/09/11 01:48:25;;;;;;;40.17;11.25;;;;;;;;;;5032634;28;20035;-63
2022/09/11 01:50:53;;;;;;;55.38;10.60;;;;;;;;;;5035098;28;20069;-66
2022/09/11 01:53:23;;;;;;;81.10;11.82;;;;;;;;;;5039220;28;20033;-63
2022/09/11 01:55:56;;;;;;;75.88;12.35;;;;;;;;;;5039204;28;20025;-63
2022/09/11 01:58:27;;;;;;;53.55;12.63;;;;;;;;;;5039100;28;20053;-63
2022/09/11 02:00:58;;;;;;;68.00;12.50;;;;;;;;;;5039165;28;20022;-63
2022/09/11 02:03:26;;;;;;;;;;;;;;;;;;5039745;28;20030;-63
2022/09/11 02:05:57;;;;;;;96.10;12.15;;;;;;;;;;5039168;28;19913;-63
2022/09/11 02:08:35;;;;;;;134.90;15.80;;;;;;;;;;5038886;28;20045;-63
2022/09/11 02:11:09;;;;;;;115.30;13.65;;;;;;;;;;5039097;28;20040;-63
2022/09/11 02:14:12;;;;;;;176.93;14.68;;;;;;;;;;5039234;28;20492;-65
2022/09/11 02:16:55;;;;;;;163.60;15.35;;;;;;;;;;5039029;28;20038;-63
2022/09/11 02:19:26;;;;;;;146.32;14.85;;;;;;;;;;5039161;28;20466;-65
2022/09/11 02:21:52;;;;;;;166.18;16.25;;;;;;;;;;5038929;28;20022;-63
2022/09/11 02:24:18;;;;;;;233.50;16.45;;;;;;;;;;5038773;28;20026;-63
2022/09/11 02:26:48;;;;;;;212.13;16.10;;;;;;;;;;5038895;28;20463;-63
2022/09/11 02:29:14;;;;;;;192.47;16.07;;;;;;;;;;5038809;28;20034;-63
2022/09/11 02:31:41;;;;;;;206.70;16.65;;;;;;;;;;5038792;28;20075;-63
2022/09/11 02:34:09;;;;;;;202.32;15.45;;;;;;;;;;5038937;28;20037;-63
2022/09/11 02:37:28;;;;;;;130.93;15.40;;;;;;;;;;5039036;28;20025;-67
2022/09/11 02:40:18;;;;;;;122.53;14.15;;;;;;;;;;4978030;28;20035;-63
2022/09/11 02:43:05;;;;;;;114.80;13.10;;;;;;;;;;4977962;28;20061;-62
2022/09/11 02:45:40;;;;;;;106.90;13.07;;;;;;;;;;4977897;28;20043;-63
2022/09/11 02:48:26;;;;;;;191.60;15.13;;;;;;;;;;4977596;28;20054;-63
2022/09/11 02:51:18;;;;;;;64.13;11.90;;;;;;;;;;4977866;28;20113;-65
2022/09/11 02:53:52;;;;;;;97.30;12.18;;;;;;;;;;4977400;28;20034;-63
2022/09/11 02:56:45;;;;;;;94.22;11.90;;;;;;;;;;4977780;28;20030;-64
2022/09/11 02:59:23;;;;;;;70.03;12.23;;;;;;;;;;4977487;28;20059;-63
2022/09/11 03:01:50;;;;;;;68.38;12.52;;;;;;;;;;4976923;28;20031;-63
2022/09/11 03:04:17;;;;;;;81.05;12.05;;;;;;;;;;4974253;28;20074;-62
2022/09/11 03:06:44;;;;;;;85.65;12.82;;;;;;;;;;4974192;28;20047;-63
2022/09/11 03:09:09;;;;;;;52.58;12.65;;;;;;;;;;4974550;28;20033;-63
2022/09/11 03:11:35;;;;;;;60.28;13.10;;;;;;;;;;4974571;28;20026;-62
2022/09/11 03:14:00;;;;;;;67.47;13.63;;;;;;;;;;5002617;28;20046;-63
2022/09/11 03:16:26;;;;;;;27.17;11.82;;;;;;;;;;5015625;28;20030;-65
2022/09/11 03:18:51;;;;;;;52.80;12.10;;;;;;;;;;5015567;28;20184;-64
2022/09/11 03:21:17;;;;;;;43.08;13.63;;;;;;;;;;5015233;28;20536;-68
2022/09/11 03:23:43;;;;;;;34.08;13.02;;;;;;;;;;5015463;28;20030;-67
2022/09/11 03:26:09;;;;;;;46.47;13.98;;;;;;;;;;5022981;28;20028;-64
2022/09/11 03:28:34;;;;;;;38.45;13.68;;;;;;;;;;5035139;28;20116;-62
2022/09/11 03:31:00;;;;;;;56.25;14.55;;;;;;;;;;5035063;28;20028;-64
2022/09/11 03:33:26;;;;;;;36.08;13.73;;;;;;;;;;5034995;28;20040;-63
2022/09/11 03:35:52;;;;;;;39.08;14.60;;;;;;;;;;5034776;28;20479;-63
2022/09/11 03:38:18;;;;;;;37.95;15.15;;;;;;;;;;5034993;28;20084;-63
2022/09/11 03:40:44;;;;;;;38.10;15.43;;;;;;;;;;5034863;28;20021;-63
2022/09/11 03:43:11;;;;;;;59.90;15.57;;;;;;;;;;5034918;28;20021;-63
2022/09/11 03:45:37;;;;;;;34.67;14.60;;;;;;;;;;5034901;28;20025;-65
2022/09/11 03:48:03;;;;;;;37.25;14.50;;;;;;;;;;5034680;28;20052;-64
2022/09/11 03:50:28;;;;;;;27.10;14.73;;;;;;;;;;5034325;28;20033;-64
2022/09/11 03:52:54;;;;;;;27.08;13.60;;;;;;;;;;5034732;28;20025;-64
2022/09/11 03:55:22;;;;;;;26.55;14.10;;;;;;;;;;5034608;28;20094;-65
2022/09/11 03:57:48;;;;;;;27.65;13.60;;;;;;;;;;5034452;28;20038;-63
2022/09/11 04:00:13;;;;;;;26.40;14.35;;;;;;;;;;5034564;28;20387;-63
2022/09/11 04:02:39;;;;;;;25.40;13.27;;;;;;;;;;5034569;28;20037;-63
2022/09/11 04:05:05;;;;;;;24.35;14.38;;;;;;;;;;5034460;28;20028;-64
2022/09/11 04:07:30;;;;;;;25.17;13.82;;;;;;;;;;5034336;28;20040;-68
2022/09/11 04:09:56;;;;;;;28.13;15.13;;;;;;;;;;5034428;28;20371;-63
2022/09/11 04:12:22;;;;;;;26.77;15.07;;;;;;;;;;5034365;28;20034;-64
2022/09/11 04:14:49;;;;;;;25.85;15.20;;;;;;;;;;5033065;28;20033;-63
2022/09/11 04:17:15;;;;;;;25.20;14.73;;;;;;;;;;5034216;28;20040;-63
2022/09/11 04:19:40;;;;;;;28.50;16.02;;;;;;;;;;5033784;28;20075;-64
2022/09/11 04:22:06;;;;;;;24.77;15.88;;;;;;;;;;5034058;28;20018;-63
2022/09/11 04:24:31;;;;;;;28.92;16.50;;;;;;;;;;5034161;28;20075;-63
2022/09/11 04:26:59;;;;;;;28.55;15.75;;;;;;;;;;5033845;28;20036;-63
2022/09/11 04:29:25;;;;;;;27.55;16.55;;;;;;;;;;5033715;28;20175;-63
2022/09/11 04:31:51;;;;;;;30.10;16.73;;;;;;;;;;5033970;28;20068;-63
2022/09/11 04:34:16;;;;;;;28.13;16.48;;;;;;;;;;5033718;28;20013;-63
2022/09/11 04:36:42;;;;;;;26.88;16.58;;;;;;;;;;5033731;28;20122;-65
2022/09/11 04:39:08;;;;;;;26.75;16.02;;;;;;;;;;5033744;28;20037;-65
2022/09/11 04:41:34;;;;;;;22.65;14.95;;;;;;;;;;5033661;28;20035;-63
2022/09/11 04:44:00;;;;;;;21.75;14.55;;;;;;;;;;5033684;28;20047;-63
2022/09/11 04:46:26;;;;;;;24.33;14.57;;;;;;;;;;5033428;28;20021;-65
2022/09/11 04:48:59;;;;;;;21.38;12.98;;;;;;;;;;5033196;28;20034;-64
2022/09/11 04:51:30;;;;;;;21.30;13.75;;;;;;;;;;5033509;28;20510;-63
2022/09/11 04:53:57;;;;;;;19.35;13.25;;;;;;;;;;5033493;28;20382;-64
2022/09/11 04:56:25;;;;;;;20.73;13.65;;;;;;;;;;5033195;28;20021;-67
2022/09/11 04:58:53;;;;;;;23.60;13.43;;;;;;;;;;5032997;28;20045;-64
2022/09/11 05:01:19;;;;;;;20.45;13.55;;;;;;;;;;5033214;28;20062;-63
2022/09/11 05:03:45;;;;;;;21.00;13.50;;;;;;;;;;5033144;28;20031;-63
2022/09/11 05:06:15;;;;;;;20.85;13.65;;;;;;;;;;5033332;28;20033;-63
2022/09/11 05:08:42;;;;;;;21.52;13.43;;;;;;;;;;5033198;28;20052;-63
2022/09/11 05:11:12;;;;;;;23.23;14.30;;;;;;;;;;5033207;28;20028;-63
2022/09/11 05:13:39;;;;;;;21.27;13.82;;;;;;;;;;5033296;28;20045;-67
2022/09/11 05:16:16;;;;;;;21.65;13.90;;;;;;;;;;5033146;28;20163;-66
2022/09/11 05:18:47;;;;;;;21.65;13.40;;;;;;;;;;5032878;28;20041;-63
2022/09/11 05:21:14;;;;;;;23.83;13.57;;;;;;;;;;5033104;28;20021;-63
2022/09/11 05:23:41;;;;;;;23.92;13.95;;;;;;;;;;5033065;28;20096;-66
2022/09/11 05:26:13;;;;;;;26.70;16.42;;;;;;;;;;5032525;28;20025;-65
2022/09/11 05:28:39;;;;;;;27.75;14.90;;;;;;;;;;5032976;28;20087;-64
2022/09/11 05:31:11;;;;;;;26.38;14.57;;;;;;;;;;5032639;28;20045;-63
2022/09/11 05:33:37;;;;;;;22.95;14.15;;;;;;;;;;5032741;28;20052;-63
2022/09/11 05:36:04;;;;;;;30.20;15.23;;;;;;;;;;5032842;28;20021;-62
2022/09/11 05:38:30;;;;;;;23.55;14.52;;;;;;;;;;5032946;28;20395;-63
2022/09/11 05:40:55;;;;;;;20.17;12.95;;;;;;;;;;5032785;28;20031;-64
2022/09/11 05:43:21;;;;;;;23.95;13.18;;;;;;;;;;5032828;28;20039;-63
2022/09/11 05:45:56;;;;;;;20.83;13.00;;;;;;;;;;5032700;28;20021;-64
2022/09/11 05:48:22;;;;;;;22.77;12.60;;;;;;;;;;5032663;28;20036;-67
2022/09/11 05:50:53;;;;;;;24.05;12.88;;;;;;;;;;5032293;28;20025;-63
2022/09/11 05:53:19;;;;;;;;;;;;;;;;;;5033175;28;20022;-64
2022/09/11 05:55:46;;;;;;;19.88;11.05;;;;;;;;;;5032375;28;19913;-63
2022/09/11 05:58:12;;;;;;;19.35;11.70;;;;;;;;;;5032311;28;20053;-62
2022/09/11 06:00:39;;;;;;;19.40;11.05;;;;;;;;;;5032391;28;20034;-63
2022/09/11 06:03:06;;;;;;;15.10;10.38;;;;;;;;;;5032595;28;20455;-62
2022/09/11 06:05:32;;;;;;;16.67;10.93;;;;;;;;;;5032540;28;20112;-63
2022/09/11 06:07:57;;;;;;;23.10;11.18;;;;;;;;;;5032554;28;20060;-63
2022/09/11 06:10:23;;;;;;;14.75;9.32;;;;;;;;;;5032385;28;20033;-62
2022/09/11 06:12:48;;;;;;;16.52;10.98;;;;;;;;;;5032617;28;20052;-63
2022/09/11 06:15:14;;;;;;;21.05;11.65;;;;;;;;;;5032234;28;20017;-63
2022/09/11 06:17:40;;;;;;;19.15;10.98;;;;;;;;;;5032551;28;20100;-64
2022/09/11 06:20:06;;;;;;;18.95;10.38;;;;;;;;;;5032159;28;20104;-63
2022/09/11 06:22:33;;;;;;;13.68;9.43;;;;;;;;;;5032392;28;20029;-63
2022/09/11 06:24:58;;;;;;;12.90;8.68;;;;;;;;;;5032303;28;20466;-63
2022/09/11 06:27:24;;;;;;;10.70;7.47;;;;;;;;;;5032246;28;20159;-62
2022/09/11 06:29:50;;;;;;;15.52;8.52;;;;;;;;;;5031926;28;20033;-63
2022/09/11 06:32:15;;;;;;;12.32;7.50;;;;;;;;;;5032333;28;20027;-63
2022/09/11 06:34:41;;;;;;;11.38;7.43;;;;;;;;;;5032342;28;20060;-64
2022/09/11 06:37:06;;;;;;;10.00;6.68;;;;;;;;;;5032619;28;20129;-63
2022/09/11 06:39:33;;;;;;;11.15;6.28;;;;;;;;;;5035998;28;20421;-63
2022/09/11 06:41:58;;;;;;;10.43;6.50;;;;;;;;;;5036046;28;20032;-63
2022/09/11 06:44:25;;;;;;;11.93;5.90;;;;;;;;;;5034536;28;20382;-63
2022/09/11 06:46:51;;;;;;;10.30;6.43;;;;;;;;;;5035869;28;20029;-63
2022/09/11 06:49:16;;;;;;;8.38;5.82;;;;;;;;;;5035818;28;20093;-62
2022/09/11 06:51:42;;;;;;;9.77;5.50;;;;;;;;;;5035713;28;20028;-63
2022/09/11 06:54:07;;;;;;;8.30;5.40;;;;;;;;;;5035729;28;20030;-63
2022/09/11 06:56:32;;;;;;;13.05;6.32;;;;;;;;;;5035551;28;20021;-63
2022/09/11 06:58:58;;;;;;;10.40;6.40;;;;;;;;;;5035201;28;20505;-64
2022/09/11 07:01:24;;;;;;;9.57;5.82;;;;;;;;;;5035508;28;20064;-63
2022/09/11 07:03:52;;;;;;;11.25;6.72;;;;;;;;;;5035643;28;20391;-64
2022/09/11 07:06:24;;;;;;;8.55;5.25;;;;;;;;;;5035442;28;20427;-64
2022/09/11 07:08:51;;;;;;;7.32;4.80;;;;;;;;;;5035343;28;20026;-64
2022/09/11 07:11:18;;;;;;;7.68;4.97;;;;;;;;;;5034176;28;20022;-64
2022/09/11 07:13:44;;;;;;;7.40;4.90;;;;;;;;;;5035221;28;20025;-63
2022/09/11 07:16:12;;;;;;;7.03;4.95;;;;;;;;;;5035258;28;20537;-63
2022/09/11 07:18:42;;;;;;;6.03;4.60;;;;;;;;;;5035220;28;20056;-64
2022/09/11 07:21:17;;;;;;;9.80;5.68;;;;;;;;;;5035282;28;20025;-63
2022/09/11 07:23:47;;;;;;;6.05;4.43;;;;;;;;;;5033988;28;20037;-64
2022/09/11 07:26:12;;;;;;;;;;;;;;;;;;5035587;28;20474;-64
2022/09/11 07:28:38;;;;;;;7.05;4.22;;;;;;;;;;5034881;28;19920;-64
2022/09/11 07:31:10;;;;;;;7.97;4.55;;;;;;;;;;5034897;28;20029;-64
2022/09/11 07:33:44;;;;;;;6.47;3.85;;;;;;;;;;5035001;28;20109;-63
2022/09/11 07:36:11;;;;;;;5.20;3.88;;;;;;;;;;5034894;28;20030;-64
2022/09/11 07:38:41;;;;;;;6.97;3.92;;;;;;;;;;5035010;28;20437;-63
2022/09/11 07:41:08;;;;;;;5.32;3.72;;;;;;;;;;5034880;28;20033;-63
2022/09/11 07:43:37;;;;;;;4.78;3.50;;;;;;;;;;5034546;28;20030;-63
2022/09/11 07:46:04;;;;;;;5.32;3.20;;;;;;;;;;5034741;28;20022;-64
2022/09/11 07:48:30;;;;;;;4.82;3.47;;;;;;;;;;5034368;28;20115;-66
2022/09/11 07:51:01;;;;;;;5.75;3.25;;;;;;;;;;5034669;28;20036;-63
2022/09/11 07:53:30;;;;;;;5.93;3.50;;;;;;;;;;5034522;28;20352;-63
2022/09/11 07:56:03;;;;;;;4.63;3.25;;;;;;;;;;5034701;28;20111;-62
2022/09/11 07:58:33;;;;;;;8.07;3.72;;;;;;;;;;5034396;28;20061;-63
2022/09/11 08:01:01;;;;;;;5.32;3.10;;;;;;;;;;5034487;28;20102;-63
2022/09/11 08:03:27;;;;;;;8.30;3.53;;;;;;;;;;5034421;28;20025;-63
2022/09/11 08:06:00;;;;;;;4.50;3.13;;;;;;;;;;5034436;28;20493;-63
2022/09/11 08:08:28;;;;;;;4.63;3.08;;;;;;;;;;5034088;28;20407;-63
2022/09/11 08:11:00;;;;;;;7.03;3.20;;;;;;;;;;5033998;28;20036;-63
2022/09/11 08:13:26;;;;;;;4.78;3.08;;;;;;;;;;5034483;28;20084;-63
2022/09/11 08:15:51;;;;;;;5.05;3.22;;;;;;;;;;5034360;28;20485;-63
2022/09/11 08:18:17;;;;;;;6.10;3.35;;;;;;;;;;5032629;28;20021;-63
2022/09/11 08:20:43;;;;;;;7.50;2.97;;;;;;;;;;5034169;28;20026;-64
2022/09/11 08:23:09;;;;;;;4.75;3.10;;;;;;;;;;5033968;28;20049;-62
2022/09/11 08:25:36;;;;;;;7.65;3.10;;;;;;;;;;5033799;28;20034;-63
2022/09/11 08:28:01;;;;;;;5.38;3.15;;;;;;;;;;5033758;28;20029;-63
2022/09/11 08:30:27;;;;;;;5.25;3.28;;;;;;;;;;5033396;28;20382;-63
2022/09/11 08:32:52;;;;;;;5.45;3.22;;;;;;;;;;5033708;28;20463;-63
2022/09/11 08:35:19;;;;;;;9.60;3.05;;;;;;;;;;5033671;28;20455;-62
2022/09/11 08:37:44;;;;;;;4.53;2.80;;;;;;;;;;5033414;28;20021;-63
2022/09/11 08:40:10;;;;;;;5.78;3.20;;;;;;;;;;5033297;28;20021;-63
2022/09/11 08:42:40;;;;;;;4.40;2.83;;;;;;;;;;5033674;28;20029;-62
2022/09/11 08:45:06;;;;;;;4.03;2.90;;;;;;;;;;5021869;28;20109;-62
2022/09/11 08:47:37;;;;;;;3.97;2.92;;;;;;;;;;5032456;28;20442;-64
2022/09/11 08:50:12;;;;;;;6.43;2.97;;;;;;;;;;5032911;28;20029;-63
2022/09/11 08:52:38;;;;;;;5.28;2.67;;;;;;;;;;5033309;28;20052;-63
2022/09/11 08:55:05;;;;;;;5.85;2.63;;;;;;;;;;5033025;28;20081;-63
2022/09/11 08:57:48;;;;;;;5.53;3.08;;;;;;;;;;5032876;28;20108;-63
2022/09/11 09:00:21;;;;;;;6.03;2.88;;;;;;;;;;5032453;28;20045;-63
2022/09/11 09:03:04;;;;;;;5.88;2.70;;;;;;;;;;5033338;28;20028;-63
2022/09/11 09:05:49;;;;;;;4.90;2.67;;;;;;;;;;5033111;28;20071;-63
2022/09/11 09:08:29;;;;;;;5.38;2.75;;;;;;;;;;5036161;28;20029;-63
2022/09/11 09:11:19;;;;;;;3.85;2.60;;;;;;;;;;5052059;28;20021;-68
2022/09/11 09:13:56;;;;;;;;;;;;;;;;;;5053038;28;20033;-63
2022/09/11 09:16:28;;;;;;;5.85;2.95;;;;;;;;;;5052951;28;19916;-62
2022/09/11 09:19:13;;;;;;;4.97;2.40;;;;;;;;;;5052875;28;20040;-62
2022/09/11 09:21:42;;;;;;;4.43;2.47;;;;;;;;;;5052880;28;20159;-64
2022/09/11 09:24:20;;;;;;;6.22;3.05;;;;;;;;;;5052395;28;20025;-63
2022/09/11 09:26:55;;;;;;;3.50;2.58;;;;;;;;;;5040074;28;20110;-63
2022/09/11 09:29:30;;;;;;;5.88;2.85;;;;;;;;;;5032669;28;20057;-63
2022/09/11 09:32:05;;;;;;;4.82;2.58;;;;;;;;;;5032667;28;20053;-63
2022/09/11 09:34:34;;;;;;;6.50;2.97;;;;;;;;;;5032324;28;20459;-63
2022/09/11 09:37:21;;;;;;;4.88;2.50;;;;;;;;;;5032465;28;20070;-62
2022/09/11 09:39:47;;;;;;;4.35;2.72;;;;;;;;;;5032368;28;20030;-63
2022/09/11 09:42:27;;;;;;;4.72;2.58;;;;;;;;;;5032488;28;20021;-63
2022/09/11 09:45:13;;;;;;;3.97;2.10;;;;;;;;;;5032502;28;20021;-63
2022/09/11 09:47:45;;;;;;;10.80;7.00;;;;;;;;;;5032394;28;20212;-63
2022/09/11 09:50:20;;;;;;;3.85;2.35;;;;;;;;;;5032301;28;20471;-62
2022/09/11 09:52:48;;;;;;;5.57;2.38;;;;;;;;;;5032250;28;20544;-63
2022/09/11 09:55:16;;;;;;;3.03;2.20;;;;;;;;;;5032494;28;20494;-62
2022/09/11 09:57:42;;;;;;;4.15;2.30;;;;;;;;;;5031895;28;20030;-63
2022/09/11 10:00:08;;;;;;;2.75;1.92;;;;;;;;;;5032398;28;20036;-63
2022/09/11 10:02:55;;;;;;;3.10;1.80;;;;;;;;;;5032392;28;20029;-62
2022/09/11 10:05:40;;;;;;;3.45;2.20;;;;;;;;;;5032427;28;20117;-63
2022/09/11 10:08:32;;;;;;;6.63;2.08;;;;;;;;;;5032206;28;20471;-63
2022/09/11 10:11:00;;;;;;;2.95;1.75;;;;;;;;;;5032204;28;20029;-64
2022/09/11 10:13:36;;;;;;;2.95;2.15;;;;;;;;;;5036043;28;20041;-63
2022/09/11 10:16:03;;;;;;;3.75;1.85;;;;;;;;;;5036371;28;20076;-62
2022/09/11 10:18:33;;;;;;;4.80;2.25;;;;;;;;;;5036218;28;20052;-65
2022/09/11 10:21:10;;;;;;;4.57;2.25;;;;;;;;;;5036271;28;20037;-63
2022/09/11 10:23:43;;;;;;;2.85;1.98;;;;;;;;;;5035961;28;20483;-62
2022/09/11 10:26:15;;;;;;;4.10;2.03;;;;;;;;;;5035872;28;20104;-63
2022/09/11 10:28:40;;;;;;;3.80;2.10;;;;;;;;;;5035947;28;20446;-63
2022/09/11 10:31:07;;;;;;;3.90;2.00;;;;;;;;;;5036097;28;20104;-63
2022/09/11 10:33:55;;;;;;;3.10;2.10;;;;;;;;;;5020946;28;20036;-66
2022/09/11 10:36:27;;;;;;;4.30;2.00;;;;;;;;;;5047306;28;20033;-63
2022/09/11 10:38:54;;;;;;;4.82;1.92;;;;;;;;;;5039155;28;20103;-62
2022/09/11 10:41:23;;;;;;;2.47;1.80;;;;;;;;;;5023415;28;20112;-63
2022/09/11 10:43:59;;;;;;;4.88;1.90;;;;;;;;;;5046570;28;20056;-63
2022/09/11 10:46:36;;;;;;;3.20;2.05;;;;;;;;;;5048082;28;20475;-62
2022/09/11 10:49:01;;;;;;;4.40;2.00;;;;;;;;;;5037575;28;20041;-62
2022/09/11 10:51:31;;;;;;;2.65;1.80;;;;;;;;;;5034781;28;20471;-64
2022/09/11 10:54:23;;;;;;;3.28;2.00;;;;;;;;;;5035820;28;20025;-63
2022/09/11 10:57:00;;;;;;;3.03;2.00;;;;;;;;;;5034100;28;20033;-62
2022/09/11 10:59:34;;;;;;;3.45;1.77;;;;;;;;;;5033518;28;20513;-62
2022/09/11 11:02:02;;;;;;;4.15;1.77;;;;;;;;;;5033254;28;20427;-63
2022/09/11 11:04:31;;;;;;;5.50;1.73;;;;;;;;;;5034799;28;20125;-63
2022/09/11 11:06:59;;;;;;;3.17;1.90;;;;;;;;;;5034433;28;20037;-63
2022/09/11 11:09:33;;;;;;;3.63;1.88;;;;;;;;;;5034536;28;20290;-63
2022/09/11 11:12:22;;;;;;;2.83;1.80;;;;;;;;;;5034921;28;20060;-64
2022/09/11 11:14:56;;;;;;;3.58;1.77;;;;;;;;;;4974273;28;20045;-64
2022/09/11 11:17:47;;;;;;;2.70;1.88;;;;;;;;;;4974458;28;20049;-64
2022/09/11 11:20:27;;;;;;;2.75;1.90;;;;;;;;;;4974074;28;20043;-65
2022/09/11 11:23:12;;;;;;;2.35;1.88;;;;;;;;;;4973971;28;20031;-63
2022/09/11 11:25:56;;;;;;;2.45;1.67;;;;;;;;;;4974121;28;20503;-63
2022/09/11 11:28:42;;;;;;;3.67;1.85;;;;;;;;;;4974145;28;20039;-62
2022/09/11 11:31:30;;;;;;;3.30;2.00;;;;;;;;;;4973913;28;20022;-66
2022/09/11 11:34:29;;;;;;;4.00;1.80;;;;;;;;;;4973698;28;20118;-63
2022/09/11 11:37:09;;;;;;;5.72;1.98;;;;;;;;;;4990002;28;20106;-63
2022/09/11 11:39:41;;;;;;;2.65;1.52;;;;;;;;;;4979037;28;20088;-63
2022/09/11 11:42:20;;;;;;;3.10;1.67;;;;;;;;;;4983124;28;20082;-63
2022/09/11 11:44:54;;;;;;;3.80;1.60;;;;;;;;;;4988471;28;20384;-63
2022/09/11 11:47:27;;;;;;;2.75;1.55;;;;;;;;;;4961001;28;20031;-63
2022/09/11 11:50:05;;;;;;;3.08;1.70;;;;;;;;;;4984680;28;20034;-64
2022/09/11 11:52:30;;;;;;;2.38;1.60;;;;;;;;;;5033603;28;20089;-63
2022/09/11 11:55:15;;;;;;;2.22;1.65;;;;;;;;;;5037614;28;20108;-63
2022/09/11 11:57:47;;;;;;;3.50;1.70;;;;;;;;;;5046658;28;20430;-63
2022/09/11 12:00:15;;;;;;;3.05;1.73;;;;;;;;;;5034133;28;20060;-63
2022/09/11 12:02:54;;;;;;;2.38;1.58;;;;;;;;;;5039798;28;20374;-63
2022/09/11 12:05:29;;;;;;;3.53;1.60;;;;;;;;;;5034364;28;20108;-62
2022/09/11 12:07:55;;;;;;;3.67;1.90;;;;;;;;;;5014359;28;20051;-62
2022/09/11 12:10:37;;;;;;;2.45;1.55;;;;;;;;;;5014366;28;20034;-62
2022/09/11 12:13:06;;;;;;;4.97;1.63;;;;;;;;;;5014357;28;20034;-62
2022/09/11 12:15:35;;;;;;;5.55;1.90;;;;;;;;;;5014363;28;20483;-62
2022/09/11 12:18:09;;;;;;;2.92;1.70;;;;;;;;;;5013968;28;20029;-62
2022/09/11 12:20:39;;;;;;;3.53;1.83;;;;;;;;;;5013543;28;20176;-65
2022/09/11 12:23:26;;;;;;;4.45;2.03;;;;;;;;;;5030646;28;20459;-62
2022/09/11 12:26:03;;;;;;;2.80;1.30;;;;;;;;;;5048326;28;20091;-62
2022/09/11 12:28:28;;;;;;;4.47;1.60;;;;;;;;;;5033744;28;20029;-63
2022/09/11 12:30:54;;;;;;;4.25;1.90;;;;;;;;;;5033661;28;20444;-62
2022/09/11 12:33:42;;;;;;;2.65;1.80;;;;;;;;;;5033348;28;20029;-63
2022/09/11 12:36:17;;;;;;;3.75;1.90;;;;;;;;;;5032555;28;20036;-62
2022/09/11 12:38:50;;;;;;;2.97;1.80;;;;;;;;;;5033536;28;20036;-63
2022/09/11 12:41:21;;;;;;;4.40;1.60;;;;;;;;;;5033425;28;20486;-63
2022/09/11 12:43:48;;;;;;;4.25;1.50;;;;;;;;;;5033274;28;20028;-64
2022/09/11 12:46:20;;;;;;;2.72;1.55;;;;;;;;;;5033391;28;20093;-63
2022/09/11 12:48:49;;;;;;;2.72;1.70;;;;;;;;;;5033097;28;20029;-63
2022/09/11 12:51:32;;;;;;;5.15;1.90;;;;;;;;;;5033367;28;20025;-63
2022/09/11 12:54:01;;;;;;;3.15;1.90;;;;;;;;;;5033393;28;20430;-63
2022/09/11 12:56:31;;;;;;;3.65;2.38;;;;;;;;;;5033503;28;20057;-63
2022/09/11 12:59:06;;;;;;;2.95;2.10;;;;;;;;;;5031743;28;20045;-63
2022/09/11 13:01:40;;;;;;;3.25;2.10;;;;;;;;;;5032857;28;20045;-62
2022/09/11 13:04:08;;;;;;;4.25;1.92;;;;;;;;;;5033065;28;20017;-63
2022/09/11 13:06:40;;;;;;;4.35;1.73;;;;;;;;;;5033219;28;20028;-62
2022/09/11 13:09:14;;;;;;;2.75;1.80;;;;;;;;;;5033253;28;20485;-63
2022/09/11 13:11:49;;;;;;;3.50;2.00;;;;;;;;;;5034099;28;20072;-63
2022/09/11 13:14:26;;;;;;;4.32;1.90;;;;;;;;;;5033345;28;20025;-63
2022/09/11 13:16:53;;;;;;;2.42;1.50;;;;;;;;;;5033284;28;20059;-64
2022/09/11 13:19:19;;;;;;;4.88;1.75;;;;;;;;;;5032354;28;20021;-63
2022/09/11 13:21:48;;;;;;;2.47;1.55;;;;;;;;;;5032481;28;20100;-63
2022/09/11 13:24:34;;;;;;;2.97;1.70;;;;;;;;;;5032617;28;20091;-63
2022/09/11 13:27:12;;;;;;;2.70;1.58;;;;;;;;;;5025807;28;20100;-63
2022/09/11 13:29:39;;;;;;;3.67;1.60;;;;;;;;;;5012547;28;20066;-63
2022/09/11 13:32:10;;;;;;;3.42;1.95;;;;;;;;;;5012473;28;20030;-63
2022/09/11 13:34:36;;;;;;;3.53;1.60;;;;;;;;;;5020386;28;20033;-63
2022/09/11 13:37:09;;;;;;;4.57;1.60;;;;;;;;;;5032321;28;20100;-64
2022/09/11 13:39:39;;;;;;;3.42;1.70;;;;;;;;;;5032476;28;20076;-63
2022/09/11 13:42:12;;;;;;;3.65;1.70;;;;;;;;;;5032380;28;20033;-64
2022/09/11 13:44:46;;;;;;;2.60;1.80;;;;;;;;;;5028714;28;20379;-63
2022/09/11 13:47:26;;;;;;;2.83;1.80;;;;;;;;;;5013951;28;20026;-63
2022/09/11 13:49:56;;;;;;;3.15;1.50;;;;;;;;;;5024998;28;20025;-63
2022/09/11 13:52:24;;;;;;;;;;;;;;;;;;5032798;28;20100;-63
2022/09/11 13:54:52;;;;;;;3.22;2.00;;;;;;;;;;5032299;28;19913;-63
2022/09/11 13:57:23;;;;;;;2.38;1.65;;;;;;;;;;5030313;28;20384;-67
2022/09/11 13:59:50;;;;;;;5.82;2.22;;;;;;;;;;5021977;28;20053;-63
2022/09/11 14:02:43;;;;;;;2.80;1.80;;;;;;;;;;5032205;28;20315;-63
2022/09/11 14:05:24;;;;;;;5.10;2.03;;;;;;;;;;5032134;28;20024;-63
2022/09/11 14:08:08;;;;;;;4.13;1.80;;;;;;;;;;5032173;28;20349;-63
2022/09/11 14:10:48;;;;;;;7.45;2.15;;;;;;;;;;5016168;28;20038;-63
2022/09/11 14:13:31;;;;;;;3.55;2.30;;;;;;;;;;5012328;28;20556;-62
2022/09/11 14:16:18;;;;;;;2.88;1.77;;;;;;;;;;5012316;28;20026;-63
2022/09/11 14:19:18;;;;;;;3.80;2.35;;;;;;;;;;5017239;28;20383;-63
2022/09/11 14:21:46;;;;;;;8.05;2.30;;;;;;;;;;5018600;28;20040;-63
2022/09/11 14:24:31;;;;;;;3.90;1.92;;;;;;;;;;5020488;28;20165;-63
2022/09/11 14:26:58;;;;;;;3.55;2.00;;;;;;;;;;5023969;28;20036;-63
2022/09/11 14:29:31;;;;;;;6.20;2.33;;;;;;;;;;5024416;28;20025;-63
2022/09/11 14:32:25;;;;;;;4.68;2.13;;;;;;;;;;5031779;28;20087;-64
2022/09/11 14:34:50;;;;;;;4.88;2.45;;;;;;;;;;5031760;28;20090;-63
2022/09/11 14:37:16;;;;;;;7.05;2.30;;;;;;;;;;5012985;28;20557;-63
2022/09/11 14:39:55;;;;;;;5.28;2.10;;;;;;;;;;5011712;28;20038;-63
2022/09/11 14:42:23;;;;;;;3.45;1.92;;;;;;;;;;5012072;28;20104;-63
2022/09/11 14:44:49;;;;;;;8.23;2.20;;;;;;;;;;5019812;28;20032;-63
2022/09/11 14:47:33;;;;;;;3.72;1.90;;;;;;;;;;5024736;28;20018;-63
2022/09/11 14:49:59;;;;;;;4.65;2.17;;;;;;;;;;5030680;28;20025;-63
2022/09/11 14:52:27;;;;;;;3.95;2.05;;;;;;;;;;5031662;28;20052;-63
2022/09/11 14:54:53;;;;;;;3.58;2.10;;;;;;;;;;5031127;28;20034;-63
2022/09/11 14:57:31;;;;;;;3.40;2.10;;;;;;;;;;5030627;28;20039;-63
2022/09/11 14:59:58;;;;;;;3.38;1.83;;;;;;;;;;5033336;28;20509;-64